createdAt,value
2022-10-15T00:02:15.968Z,12.80
2022-10-15T00:04:43.978Z,12.80
2022-10-15T00:07:11.889Z,12.80
2022-10-15T00:09:39.981Z,12.80
2022-10-15T00:12:08.126Z,12.80
2022-10-15T00:14:36.134Z,12.70
2022-10-15T00:17:09.585Z,12.70
2022-10-15T00:19:38.934Z,12.70
2022-10-15T00:22:07.299Z,12.70
2022-10-15T00:24:35.196Z,12.70
2022-10-15T00:27:03.578Z,12.60
2022-10-15T00:29:31.509Z,12.60
2022-10-15T00:32:00.271Z,12.60
2022-10-15T00:34:28.305Z,12.70
2022-10-15T00:36:57.667Z,12.60
2022-10-15T00:39:25.608Z,12.60
2022-10-15T00:41:53.528Z,12.60
2022-10-15T00:44:40.255Z,12.60
2022-10-15T00:47:14.897Z,12.60
2022-10-15T00:49:45.616Z,12.60
2022-10-15T00:52:17.214Z,12.60
2022-10-15T00:54:46.249Z,12.60
2022-10-15T00:57:14.549Z,12.50
2022-10-15T00:59:44.106Z,12.50
2022-10-15T01:02:12.493Z,12.50
2022-10-15T01:04:41.026Z,12.50
2022-10-15T01:07:09.229Z,12.50
2022-10-15T01:09:38.517Z,12.40
2022-10-15T01:12:11.126Z,12.40
2022-10-15T01:14:42.841Z,12.40
2022-10-15T01:17:14.720Z,12.40
2022-10-15T01:19:58.696Z,12.40
2022-10-15T01:22:32.968Z,12.40
2022-10-15T01:25:10.256Z,12.30
2022-10-15T01:27:39.448Z,12.30
2022-10-15T01:30:25.268Z,12.30
2022-10-15T01:33:08.192Z,12.40
2022-10-15T01:35:41.246Z,12.30
2022-10-15T01:38:15.222Z,12.40
2022-10-15T01:40:45.514Z,12.40
2022-10-15T01:43:15.326Z,12.30
2022-10-15T01:45:46.014Z,12.30
2022-10-15T01:48:15.779Z,12.30
2022-10-15T01:50:45.482Z,12.40
2022-10-15T01:53:16.433Z,12.30
2022-10-15T01:55:44.728Z,12.30
2022-10-15T01:58:13.705Z,12.30
2022-10-15T02:00:42.564Z,12.30
2022-10-15T02:03:10.873Z,12.20
2022-10-15T02:05:41.708Z,12.30
2022-10-15T02:08:14.522Z,12.30
2022-10-15T02:13:23.876Z,12.20
2022-10-15T02:15:55.172Z,12.20
2022-10-15T02:18:29.427Z,12.20
2022-10-15T02:21:06.788Z,12.20
2022-10-15T02:23:39.767Z,12.20
2022-10-15T02:26:09.749Z,12.20
2022-10-15T02:28:39.406Z,12.20
2022-10-15T02:31:09.966Z,12.20
2022-10-15T02:33:39.123Z,12.20
2022-10-15T02:36:09.630Z,12.20
2022-10-15T02:38:38.998Z,12.20
2022-10-15T02:41:08.213Z,12.20
2022-10-15T02:43:37.119Z,12.20
2022-10-15T02:46:06.367Z,12.20
2022-10-15T02:48:34.382Z,12.20
2022-10-15T02:51:02.505Z,12.20
2022-10-15T02:53:31.780Z,12.20
2022-10-15T02:55:59.747Z,12.20
2022-10-15T02:58:29.189Z,12.20
2022-10-15T03:00:57.333Z,12.20
2022-10-15T03:03:25.439Z,12.20
2022-10-15T03:05:53.404Z,12.20
2022-10-15T03:08:21.285Z,12.20
2022-10-15T03:10:50.636Z,12.20
2022-10-15T03:13:18.514Z,12.20
2022-10-15T03:15:46.400Z,12.20
2022-10-15T03:18:17.356Z,12.20
2022-10-15T03:20:47.260Z,12.20
2022-10-15T03:23:15.499Z,12.20
2022-10-15T03:25:43.367Z,12.20
2022-10-15T03:28:12.806Z,12.20
2022-10-15T03:30:40.867Z,12.20
2022-10-15T03:33:09.091Z,12.20
2022-10-15T03:35:37.327Z,12.20
2022-10-15T03:38:05.585Z,12.20
2022-10-15T03:40:33.662Z,12.20
2022-10-15T03:43:04.841Z,12.20
2022-10-15T03:45:34.167Z,12.20
2022-10-15T03:48:04.246Z,12.10
2022-10-15T03:50:32.763Z,12.20
2022-10-15T03:53:00.799Z,12.10
2022-10-15T03:55:28.646Z,12.10
2022-10-15T03:57:56.590Z,12.00
2022-10-15T04:00:27.431Z,12.10
2022-10-15T04:02:56.871Z,12.10
2022-10-15T04:05:24.764Z,12.00
2022-10-15T04:07:52.694Z,12.00
2022-10-15T04:10:20.966Z,12.00
2022-10-15T04:12:48.825Z,12.10
2022-10-15T04:15:16.850Z,12.00
2022-10-15T04:17:44.784Z,12.00
2022-10-15T04:20:15.434Z,12.00
2022-10-15T04:22:43.366Z,12.00
2022-10-15T04:25:11.334Z,11.90
2022-10-15T04:27:39.713Z,11.90
2022-10-15T04:30:08.095Z,12.00
2022-10-15T04:32:36.007Z,12.00
2022-10-15T04:35:04.343Z,12.00
2022-10-15T04:37:35.168Z,11.90
2022-10-15T04:40:03.503Z,11.90
2022-10-15T04:42:32.045Z,11.90
2022-10-15T04:45:02.936Z,12.20
2022-10-15T04:47:31.091Z,11.90
2022-10-15T04:49:59.102Z,11.90
2022-10-15T04:52:27.048Z,11.90
2022-10-15T04:54:58.682Z,11.90
2022-10-15T04:57:26.965Z,11.90
2022-10-15T04:59:57.693Z,11.90
2022-10-15T05:02:26.083Z,11.80
2022-10-15T05:04:54.009Z,11.90
2022-10-15T05:07:22.315Z,11.80
2022-10-15T05:09:50.483Z,11.80
2022-10-15T05:12:20.428Z,11.80
2022-10-15T05:14:48.290Z,11.80
2022-10-15T05:17:16.577Z,11.80
2022-10-15T05:19:44.504Z,11.70
2022-10-15T05:22:12.450Z,11.70
2022-10-15T05:24:40.322Z,11.70
2022-10-15T05:27:11.312Z,11.70
2022-10-15T05:29:40.729Z,11.70
2022-10-15T05:32:08.823Z,11.70
2022-10-15T05:34:36.693Z,11.70
2022-10-15T05:37:04.722Z,11.70
2022-10-15T05:39:32.669Z,11.70
2022-10-15T05:42:00.778Z,11.70
2022-10-15T05:44:28.718Z,11.70
2022-10-15T05:46:58.024Z,11.70
2022-10-15T05:49:26.037Z,11.70
2022-10-15T05:54:27.013Z,11.70
2022-10-15T05:56:55.045Z,11.60
2022-10-15T05:59:22.966Z,11.70
2022-10-15T06:01:51.382Z,11.70
2022-10-15T06:04:20.770Z,11.60
2022-10-15T06:06:48.651Z,11.60
2022-10-15T06:09:16.727Z,11.60
2022-10-15T06:11:44.656Z,11.60
2022-10-15T06:14:12.797Z,11.60
2022-10-15T06:16:40.658Z,11.70
2022-10-15T06:19:08.544Z,11.60
2022-10-15T06:21:37.832Z,11.60
2022-10-15T06:24:09.198Z,11.60
2022-10-15T06:26:38.223Z,11.60
2022-10-15T06:29:06.563Z,11.70
2022-10-15T06:31:34.527Z,11.70
2022-10-15T06:34:05.579Z,11.60
2022-10-15T06:36:33.555Z,11.60
2022-10-15T06:39:03.282Z,11.60
2022-10-15T06:41:31.244Z,11.60
2022-10-15T06:43:59.672Z,11.60
2022-10-15T06:46:27.684Z,11.60
2022-10-15T06:48:56.091Z,11.70
2022-10-15T06:51:24.195Z,11.70
2022-10-15T06:53:54.894Z,11.70
2022-10-15T06:56:24.268Z,11.70
2022-10-15T06:58:52.194Z,11.70
2022-10-15T07:01:20.214Z,11.70
2022-10-15T07:03:49.838Z,11.70
2022-10-15T07:06:18.023Z,11.70
2022-10-15T07:08:46.030Z,11.70
2022-10-15T07:11:13.950Z,11.80
2022-10-15T07:13:44.276Z,11.80
2022-10-15T07:16:13.139Z,11.80
2022-10-15T07:18:41.233Z,11.80
2022-10-15T07:21:16.036Z,11.80
2022-10-15T07:23:44.081Z,11.90
2022-10-15T07:26:14.951Z,11.90
2022-10-15T07:28:44.433Z,12.00
2022-10-15T07:31:14.489Z,11.90
2022-10-15T07:33:45.337Z,12.00
2022-10-15T07:36:13.848Z,12.00
2022-10-15T07:38:41.938Z,12.00
2022-10-15T07:41:10.983Z,12.10
2022-10-15T07:43:40.110Z,12.10
2022-10-15T07:46:09.925Z,12.10
2022-10-15T07:48:38.117Z,12.20
2022-10-15T07:51:06.990Z,12.20
2022-10-15T07:53:35.286Z,12.30
2022-10-15T07:56:04.433Z,12.30
2022-10-15T07:58:34.558Z,12.30
2022-10-15T08:01:02.994Z,12.30
2022-10-15T08:03:32.589Z,12.40
2022-10-15T08:06:00.978Z,12.40
2022-10-15T08:08:29.330Z,12.50
2022-10-15T08:10:57.378Z,12.50
2022-10-15T08:13:25.615Z,12.50
2022-10-15T08:15:56.319Z,12.60
2022-10-15T08:18:27.952Z,12.60
2022-10-15T08:20:59.452Z,13.30
2022-10-15T08:23:27.400Z,12.70
2022-10-15T08:25:58.309Z,12.70
2022-10-15T08:28:26.369Z,12.80
2022-10-15T08:30:55.618Z,12.80
2022-10-15T08:33:23.652Z,12.90
2022-10-15T08:35:51.619Z,12.90
2022-10-15T08:38:20.853Z,13.00
2022-10-15T08:40:53.574Z,13.00
2022-10-15T08:43:24.059Z,13.00
2022-10-15T08:45:52.944Z,13.00
2022-10-15T08:48:23.885Z,13.10
2022-10-15T08:50:56.160Z,13.10
2022-10-15T08:53:26.606Z,13.20
2022-10-15T08:55:55.921Z,13.20
2022-10-15T08:58:26.564Z,13.20
2022-10-15T09:00:55.809Z,13.30
2022-10-15T09:03:37.827Z,13.30
2022-10-15T09:06:11.036Z,13.30
2022-10-15T09:08:44.318Z,13.30
2022-10-15T09:11:16.275Z,13.20
2022-10-15T09:13:44.940Z,13.40
2022-10-15T09:16:15.230Z,13.40
2022-10-15T09:18:44.664Z,13.50
2022-10-15T09:21:14.704Z,13.50
2022-10-15T09:23:45.324Z,13.60
2022-10-15T09:26:24.203Z,13.60
2022-10-15T09:28:57.411Z,13.60
2022-10-15T09:31:29.121Z,13.60
2022-10-15T09:34:00.461Z,13.60
2022-10-15T09:36:34.757Z,13.60
2022-10-15T09:39:06.648Z,13.70
2022-10-15T09:41:39.678Z,13.70
2022-10-15T09:44:13.647Z,13.80
2022-10-15T09:46:45.706Z,13.80
2022-10-15T09:49:18.901Z,13.90
2022-10-15T09:51:49.341Z,13.90
2022-10-15T09:54:22.816Z,14.00
2022-10-15T09:56:53.310Z,14.10
2022-10-15T09:59:22.855Z,14.20
2022-10-15T10:01:57.615Z,14.20
2022-10-15T10:04:27.432Z,14.30
2022-10-15T10:06:56.722Z,14.40
2022-10-15T10:09:27.823Z,14.40
2022-10-15T10:11:56.956Z,14.50
2022-10-15T10:14:29.061Z,14.60
2022-10-15T10:17:17.459Z,14.70
2022-10-15T10:19:45.999Z,14.80
2022-10-15T10:22:15.624Z,14.80
2022-10-15T10:24:45.325Z,14.90
2022-10-15T10:27:19.359Z,15.00
2022-10-15T10:29:50.302Z,15.10
2022-10-15T10:32:20.101Z,15.10
2022-10-15T10:34:52.396Z,15.20
2022-10-15T10:37:21.827Z,15.20
2022-10-15T10:39:55.455Z,15.30
2022-10-15T10:42:28.575Z,15.40
2022-10-15T10:44:56.555Z,15.50
2022-10-15T10:47:26.054Z,15.50
2022-10-15T10:49:54.892Z,15.50
2022-10-15T10:52:24.135Z,15.60
2022-10-15T10:54:58.137Z,15.60
2022-10-15T10:57:29.065Z,15.60
2022-10-15T10:59:57.897Z,15.50
2022-10-15T11:02:25.850Z,15.50
2022-10-15T11:04:53.802Z,15.50
2022-10-15T11:07:28.239Z,15.50
2022-10-15T11:10:00.430Z,15.50
2022-10-15T11:12:35.080Z,15.50
2022-10-15T11:15:06.824Z,15.50
2022-10-15T11:17:43.118Z,15.50
2022-10-15T11:23:11.907Z,15.60
2022-10-15T11:25:44.601Z,15.60
2022-10-15T11:28:20.333Z,15.50
2022-10-15T11:30:52.814Z,15.40
2022-10-15T11:33:28.127Z,15.40
2022-10-15T11:36:02.013Z,15.30
2022-10-15T11:38:33.361Z,15.30
2022-10-15T11:41:18.828Z,15.30
2022-10-15T11:43:52.351Z,15.30
2022-10-15T11:46:26.148Z,15.30
2022-10-15T11:49:01.067Z,15.30
2022-10-15T11:51:33.883Z,15.30
2022-10-15T11:54:09.575Z,15.30
2022-10-15T11:56:41.071Z,15.30
2022-10-15T11:59:16.985Z,15.30
2022-10-15T12:01:47.577Z,15.30
2022-10-15T12:04:16.902Z,15.30
2022-10-15T12:06:46.759Z,15.40
2022-10-15T12:09:16.652Z,15.50
2022-10-15T12:11:49.279Z,15.50
2022-10-15T12:14:19.971Z,15.60
2022-10-15T12:16:54.925Z,15.80
2022-10-15T12:19:25.262Z,16.10
2022-10-15T12:22:11.153Z,16.30
2022-10-15T12:24:57.132Z,16.50
2022-10-15T12:27:29.721Z,16.70
2022-10-15T12:30:16.225Z,16.90
2022-10-15T12:32:46.675Z,17.10
2022-10-15T12:37:50.910Z,17.20
2022-10-15T12:40:26.534Z,17.00
2022-10-15T12:42:56.984Z,17.00
2022-10-15T12:45:25.782Z,16.90
2022-10-15T12:47:54.726Z,16.80
2022-10-15T12:50:23.954Z,16.80
2022-10-15T12:52:59.523Z,16.70
2022-10-15T12:55:29.244Z,16.70
2022-10-15T12:57:59.698Z,16.60
2022-10-15T13:00:28.950Z,16.50
2022-10-15T13:03:01.068Z,16.50
2022-10-15T13:05:30.086Z,16.50
2022-10-15T13:07:59.313Z,16.50
2022-10-15T13:10:29.442Z,16.40
2022-10-15T13:13:00.413Z,16.40
2022-10-15T13:15:29.131Z,16.50
2022-10-15T13:17:57.912Z,16.40
2022-10-15T13:20:30.573Z,16.40
2022-10-15T13:23:18.946Z,16.40
2022-10-15T13:26:12.538Z,16.40
2022-10-15T13:28:42.624Z,16.30
2022-10-15T13:31:14.490Z,16.30
2022-10-15T13:33:43.249Z,16.30
2022-10-15T13:36:18.303Z,16.30
2022-10-15T13:38:52.515Z,16.20
2022-10-15T13:41:24.157Z,16.20
2022-10-15T13:43:55.026Z,16.20
2022-10-15T13:46:24.629Z,16.20
2022-10-15T13:48:57.418Z,16.20
2022-10-15T13:51:33.323Z,16.20
2022-10-15T13:54:02.113Z,16.20
2022-10-15T13:56:31.962Z,16.20
2022-10-15T13:59:02.096Z,16.20
2022-10-15T14:01:30.911Z,16.20
2022-10-15T14:03:59.638Z,16.20
2022-10-15T14:06:28.857Z,16.20
2022-10-15T14:08:57.302Z,16.10
2022-10-15T14:11:25.612Z,16.10
2022-10-15T14:13:54.283Z,16.00
2022-10-15T14:16:25.644Z,16.00
2022-10-15T14:18:54.567Z,16.00
2022-10-15T14:21:28.708Z,16.00
2022-10-15T14:24:04.078Z,15.90
2022-10-15T14:26:32.511Z,15.80
2022-10-15T14:29:00.746Z,15.80
2022-10-15T14:31:32.956Z,15.80
2022-10-15T14:34:01.190Z,15.80
2022-10-15T14:36:30.250Z,15.70
2022-10-15T14:39:13.021Z,15.70
2022-10-15T14:41:40.964Z,15.70
2022-10-15T14:44:18.820Z,15.70
2022-10-15T14:46:49.347Z,15.70
2022-10-15T14:49:22.964Z,15.70
2022-10-15T14:51:58.426Z,15.70
2022-10-15T14:54:29.596Z,15.70
2022-10-15T14:56:58.328Z,15.70
2022-10-15T14:59:29.991Z,15.70
2022-10-15T15:02:02.949Z,15.70
2022-10-15T15:04:35.336Z,15.60
2022-10-15T15:07:03.310Z,15.60
2022-10-15T15:09:31.258Z,15.70
2022-10-15T15:11:59.168Z,15.60
2022-10-15T15:14:27.068Z,15.60
2022-10-15T15:16:54.926Z,15.60
2022-10-15T15:19:24.123Z,15.60
2022-10-15T15:21:51.982Z,15.60
2022-10-15T15:24:19.971Z,15.60
2022-10-15T15:26:47.881Z,15.60
2022-10-15T15:29:15.912Z,15.60
2022-10-15T15:31:43.948Z,15.50
2022-10-15T15:34:12.309Z,15.50
2022-10-15T15:36:41.766Z,15.50
2022-10-15T15:39:09.714Z,15.50
2022-10-15T15:41:37.703Z,15.50
2022-10-15T15:44:07.416Z,15.20
2022-10-15T15:46:35.388Z,15.50
2022-10-15T15:49:03.657Z,15.50
2022-10-15T15:51:32.186Z,15.50
2022-10-15T15:54:04.499Z,15.50
2022-10-15T15:56:32.998Z,15.50
2022-10-15T15:59:01.088Z,15.50
2022-10-15T16:01:29.067Z,15.40
2022-10-15T16:03:57.009Z,15.40
2022-10-15T16:06:24.959Z,15.40
2022-10-15T16:08:53.417Z,15.40
2022-10-15T16:11:22.758Z,15.40
2022-10-15T16:13:50.668Z,15.40
2022-10-15T16:16:18.665Z,15.40
2022-10-15T16:18:46.853Z,15.40
2022-10-15T16:21:14.729Z,15.40
2022-10-15T16:23:42.889Z,15.50
2022-10-15T16:26:10.768Z,15.50
2022-10-15T16:28:40.128Z,15.50
2022-10-15T16:31:15.094Z,15.50
2022-10-15T16:33:43.045Z,15.50
2022-10-15T16:36:11.131Z,15.50
2022-10-15T16:38:40.733Z,15.50
2022-10-15T16:41:09.017Z,15.50
2022-10-15T16:43:37.217Z,15.50
2022-10-15T16:46:07.434Z,15.50
2022-10-15T16:48:35.686Z,15.50
2022-10-15T16:51:05.091Z,15.50
2022-10-15T16:53:32.969Z,15.50
2022-10-15T16:56:02.014Z,15.50
2022-10-15T16:58:30.473Z,15.50
2022-10-15T17:00:59.636Z,15.50
2022-10-15T17:03:30.167Z,15.50
2022-10-15T17:05:58.678Z,15.50
2022-10-15T17:08:29.912Z,15.50
2022-10-15T17:10:58.907Z,15.50
2022-10-15T17:13:26.800Z,15.50
2022-10-15T17:15:56.900Z,15.50
2022-10-15T17:18:29.713Z,15.60
2022-10-15T17:20:57.642Z,15.50
2022-10-15T17:23:25.713Z,15.50
2022-10-15T17:25:53.674Z,15.50
2022-10-15T17:28:21.626Z,15.50
2022-10-15T17:30:49.513Z,15.50
2022-10-15T17:33:17.519Z,15.50
2022-10-15T17:35:46.852Z,15.50
2022-10-15T17:38:16.958Z,15.50
2022-10-15T17:40:47.145Z,15.50
2022-10-15T17:43:15.151Z,15.50
2022-10-15T17:45:43.075Z,15.40
2022-10-15T17:48:10.981Z,15.40
2022-10-15T17:50:43.066Z,15.40
2022-10-15T17:53:15.758Z,15.40
2022-10-15T17:55:43.752Z,15.40
2022-10-15T17:58:11.665Z,15.30
2022-10-15T18:00:39.841Z,15.30
2022-10-15T18:03:07.775Z,15.30
2022-10-15T18:05:36.032Z,15.20
2022-10-15T18:08:04.371Z,15.20
2022-10-15T18:10:33.703Z,15.20
2022-10-15T18:13:01.595Z,15.20
2022-10-15T18:15:29.863Z,15.20
2022-10-15T18:17:57.818Z,15.20
2022-10-15T18:20:25.827Z,15.20
2022-10-15T18:22:54.121Z,15.20
2022-10-15T18:25:21.996Z,15.10
2022-10-15T18:27:51.230Z,15.10
2022-10-15T18:30:19.284Z,15.10
2022-10-15T18:32:47.192Z,15.10
2022-10-15T18:35:15.148Z,15.00
2022-10-15T18:37:43.035Z,15.00
2022-10-15T18:40:11.798Z,15.00
2022-10-15T18:42:39.793Z,14.90
2022-10-15T18:45:09.562Z,14.90
2022-10-15T18:47:37.535Z,14.90
2022-10-15T18:50:06.106Z,14.80
2022-10-15T18:52:40.728Z,14.80
2022-10-15T18:55:09.519Z,14.10
2022-10-15T18:57:37.367Z,14.80
2022-10-15T19:00:05.723Z,14.80
2022-10-15T19:02:34.746Z,14.80
2022-10-15T19:05:04.414Z,14.70
2022-10-15T19:07:32.331Z,14.70
2022-10-15T19:10:00.490Z,14.70
2022-10-15T19:12:28.594Z,14.70
2022-10-15T19:14:56.555Z,14.70
2022-10-15T19:17:24.451Z,14.70
2022-10-15T19:19:52.420Z,14.70
2022-10-15T19:22:21.646Z,14.70
2022-10-15T19:24:49.624Z,14.60
2022-10-15T19:27:17.609Z,14.60
2022-10-15T19:29:45.504Z,14.60
2022-10-15T19:32:13.520Z,14.60
2022-10-15T19:34:41.806Z,14.50
2022-10-15T19:37:09.710Z,14.50
2022-10-15T19:39:39.630Z,14.60
2022-10-15T19:42:07.624Z,14.50
2022-10-15T19:44:35.736Z,14.50
2022-10-15T19:47:03.635Z,14.40
2022-10-15T19:49:31.537Z,14.40
2022-10-15T19:52:01.093Z,14.40
2022-10-15T19:54:29.296Z,14.40
2022-10-15T19:56:58.601Z,14.30
2022-10-15T19:59:26.761Z,14.30
2022-10-15T20:01:54.787Z,14.30
2022-10-15T20:04:22.704Z,14.20
2022-10-15T20:06:52.817Z,14.20
2022-10-15T20:09:20.967Z,14.20
2022-10-15T20:11:49.184Z,14.20
2022-10-15T20:14:18.546Z,14.20
2022-10-15T20:16:46.691Z,14.10
2022-10-15T20:19:14.676Z,14.10
2022-10-15T20:21:42.630Z,14.10
2022-10-15T20:24:10.622Z,14.10
2022-10-15T20:26:38.529Z,14.10
2022-10-15T20:29:06.611Z,14.00
2022-10-15T20:31:36.098Z,14.00
2022-10-15T20:34:04.046Z,14.00
2022-10-15T20:36:31.980Z,14.00
2022-10-15T20:39:00.685Z,14.00
2022-10-15T20:41:29.134Z,14.00
2022-10-15T20:43:57.697Z,14.00
2022-10-15T20:46:27.864Z,14.00
2022-10-15T20:48:58.143Z,14.00
2022-10-15T20:51:28.500Z,14.00
2022-10-15T20:53:56.806Z,14.00
2022-10-15T20:56:24.876Z,13.90
2022-10-15T20:58:52.793Z,13.90
2022-10-15T21:01:20.898Z,13.90
2022-10-15T21:03:48.908Z,13.90
2022-10-15T21:06:18.348Z,13.90
2022-10-15T21:08:46.225Z,13.80
2022-10-15T21:11:14.147Z,13.80
2022-10-15T21:13:42.198Z,13.80
2022-10-15T21:16:10.184Z,13.80
2022-10-15T21:18:38.480Z,13.80
2022-10-15T21:21:07.585Z,13.70
2022-10-15T21:23:37.614Z,13.70
2022-10-15T21:26:06.075Z,13.70
2022-10-15T21:28:34.299Z,13.70
2022-10-15T21:31:05.003Z,13.70
2022-10-15T21:33:32.949Z,13.70
2022-10-15T21:36:09.773Z,13.60
2022-10-15T21:38:39.090Z,13.60
2022-10-15T21:41:07.328Z,13.60
2022-10-15T21:43:35.276Z,13.60
2022-10-15T21:46:06.824Z,13.60
2022-10-15T21:48:36.506Z,13.50
2022-10-15T21:51:04.549Z,13.50
2022-10-15T21:53:32.584Z,13.50
2022-10-15T21:56:02.213Z,13.50
2022-10-15T21:58:30.093Z,13.50
2022-10-15T22:00:58.190Z,13.50
2022-10-15T22:03:26.113Z,13.40
2022-10-15T22:05:53.961Z,13.40
2022-10-15T22:08:21.877Z,13.40
2022-10-15T22:10:49.846Z,13.40
2022-10-15T22:13:19.096Z,13.40
2022-10-15T22:15:47.077Z,13.40
2022-10-15T22:18:15.009Z,13.30
2022-10-15T22:20:42.947Z,13.40
2022-10-15T22:23:10.796Z,13.30
2022-10-15T22:25:38.666Z,13.30
2022-10-15T22:28:06.578Z,13.30
2022-10-15T22:30:36.749Z,13.30
2022-10-15T22:33:04.825Z,13.30
2022-10-15T22:35:33.774Z,13.20
2022-10-15T22:38:01.660Z,13.20
2022-10-15T22:40:29.707Z,13.20
2022-10-15T22:42:57.760Z,13.20
2022-10-15T22:45:25.662Z,13.20
2022-10-15T22:47:54.921Z,13.20
2022-10-15T22:50:23.260Z,13.20
2022-10-15T22:52:51.145Z,13.20
2022-10-15T22:55:19.237Z,13.20
2022-10-15T22:57:48.718Z,13.20
2022-10-15T23:00:16.706Z,13.10
2022-10-15T23:02:44.760Z,13.10
2022-10-15T23:05:14.037Z,13.10
2022-10-15T23:07:42.831Z,13.10
2022-10-15T23:10:11.006Z,13.10
2022-10-15T23:12:39.074Z,13.10
2022-10-15T23:15:07.544Z,13.10
2022-10-15T23:17:35.518Z,13.10
2022-10-15T23:20:03.397Z,13.00
2022-10-15T23:22:32.780Z,13.00
2022-10-15T23:25:00.816Z,13.00
2022-10-15T23:27:29.027Z,13.00
2022-10-15T23:30:07.556Z,13.00
2022-10-15T23:32:44.833Z,13.00
2022-10-15T23:35:12.823Z,13.00
2022-10-15T23:37:42.357Z,13.00
2022-10-15T23:40:11.081Z,12.90
2022-10-15T23:42:38.944Z,12.90
2022-10-15T23:45:07.455Z,12.90
2022-10-15T23:47:35.371Z,12.90
2022-10-15T23:50:03.262Z,12.80
2022-10-15T23:52:32.187Z,12.90
2022-10-15T23:55:01.485Z,12.80
2022-10-15T23:57:29.416Z,12.80
2022-10-15T23:59:57.436Z,12.80
